sensor_id;sensor_type;location;lat;lon;timestamp;pressure;altitude;pressure_sealevel;temperature;humidity
11077;BME280;5591;42.626;23.380;2023-04-19T00:01:01;93776.44;;;12.04;100.00
11077;BME280;5591;42.626;23.380;2023-04-19T00:03:27;93772.19;;;11.96;100.00
11077;BME280;5591;42.626;23.380;2023-04-19T00:05:55;93805.25;;;11.79;100.00
11077;BME280;5591;42.626;23.380;2023-04-19T00:08:23;93773.84;;;11.91;100.00
11077;BME280;5591;42.626;23.380;2023-04-19T00:10:50;93781.16;;;11.82;100.00
11077;BME280;5591;42.626;23.380;2023-04-19T00:13:17;93774.38;;;12.12;100.00
11077;BME280;5591;42.626;23.380;2023-04-19T00:15:45;93765.13;;;11.97;100.00
11077;BME280;5591;42.626;23.380;2023-04-19T00:18:12;93751.28;;;12.21;100.00
11077;BME280;5591;42.626;23.380;2023-04-19T00:20:39;93755.47;;;12.28;100.00
11077;BME280;5591;42.626;23.380;2023-04-19T00:23:06;93765.91;;;12.10;100.00
11077;BME280;5591;42.626;23.380;2023-04-19T00:25:32;93768.44;;;12.30;100.00
11077;BME280;5591;42.626;23.380;2023-04-19T00:28:00;93759.44;;;12.43;100.00
11077;BME280;5591;42.626;23.380;2023-04-19T00:30:27;93750.22;;;12.65;100.00
11077;BME280;5591;42.626;23.380;2023-04-19T00:32:55;93751.19;;;12.33;100.00
11077;BME280;5591;42.626;23.380;2023-04-19T00:35:21;93756.97;;;12.18;100.00
11077;BME280;5591;42.626;23.380;2023-04-19T00:37:48;93761.00;;;12.57;100.00
11077;BME280;5591;42.626;23.380;2023-04-19T00:40:15;93752.00;;;11.90;100.00
11077;BME280;5591;42.626;23.380;2023-04-19T00:42:42;93759.84;;;12.03;100.00
11077;BME280;5591;42.626;23.380;2023-04-19T00:45:09;93724.22;;;12.07;100.00
11077;BME280;5591;42.626;23.380;2023-04-19T00:47:37;93749.16;;;12.42;100.00
11077;BME280;5591;42.626;23.380;2023-04-19T00:50:06;93757.44;;;11.95;100.00
11077;BME280;5591;42.626;23.380;2023-04-19T00:52:33;93741.91;;;11.94;100.00
11077;BME280;5591;42.626;23.380;2023-04-19T00:55:01;93735.28;;;11.72;100.00
11077;BME280;5591;42.626;23.380;2023-04-19T00:57:28;93714.06;;;11.54;100.00
11077;BME280;5591;42.626;23.380;2023-04-19T00:59:56;93743.16;;;11.78;100.00
11077;BME280;5591;42.626;23.380;2023-04-19T01:02:23;93743.41;;;11.64;100.00
11077;BME280;5591;42.626;23.380;2023-04-19T01:04:50;93746.44;;;11.61;100.00
11077;BME280;5591;42.626;23.380;2023-04-19T01:07:18;93720.94;;;11.68;100.00
11077;BME280;5591;42.626;23.380;2023-04-19T01:09:45;93730.25;;;11.51;100.00
11077;BME280;5591;42.626;23.380;2023-04-19T01:12:12;93743.81;;;11.61;100.00
11077;BME280;5591;42.626;23.380;2023-04-19T01:14:39;93671.09;;;11.22;100.00
11077;BME280;5591;42.626;23.380;2023-04-19T01:17:06;93740.28;;;11.93;100.00
11077;BME280;5591;42.626;23.380;2023-04-19T01:19:33;93736.06;;;11.79;100.00
11077;BME280;5591;42.626;23.380;2023-04-19T01:22:00;93737.66;;;11.80;100.00
11077;BME280;5591;42.626;23.380;2023-04-19T01:24:30;93736.53;;;11.50;100.00
11077;BME280;5591;42.626;23.380;2023-04-19T01:26:57;93722.56;;;11.49;100.00
11077;BME280;5591;42.626;23.380;2023-04-19T01:29:24;93734.50;;;11.65;100.00
11077;BME280;5591;42.626;23.380;2023-04-19T01:31:50;93734.28;;;11.60;100.00
11077;BME280;5591;42.626;23.380;2023-04-19T01:34:18;93697.94;;;11.44;100.00
11077;BME280;5591;42.626;23.380;2023-04-19T01:36:44;93732.28;;;11.68;100.00
11077;BME280;5591;42.626;23.380;2023-04-19T01:39:11;93735.28;;;11.52;100.00
11077;BME280;5591;42.626;23.380;2023-04-19T01:41:39;93723.78;;;11.53;100.00
11077;BME280;5591;42.626;23.380;2023-04-19T01:44:06;93733.28;;;11.41;100.00
11077;BME280;5591;42.626;23.380;2023-04-19T01:46:33;93716.72;;;11.47;100.00
11077;BME280;5591;42.626;23.380;2023-04-19T01:49:00;93722.53;;;11.82;100.00
11077;BME280;5591;42.626;23.380;2023-04-19T01:51:27;93712.69;;;11.38;100.00
11077;BME280;5591;42.626;23.380;2023-04-19T01:53:54;93724.78;;;11.65;100.00
11077;BME280;5591;42.626;23.380;2023-04-19T01:56:22;93724.13;;;11.76;100.00
11077;BME280;5591;42.626;23.380;2023-04-19T01:58:50;93707.13;;;11.85;100.00
11077;BME280;5591;42.626;23.380;2023-04-19T02:01:17;93724.78;;;11.72;100.00
11077;BME280;5591;42.626;23.380;2023-04-19T02:03:44;93709.38;;;11.75;100.00
11077;BME280;5591;42.626;23.380;2023-04-19T02:06:11;93714.41;;;11.83;100.00
11077;BME280;5591;42.626;23.380;2023-04-19T02:08:38;93701.06;;;11.85;100.00
11077;BME280;5591;42.626;23.380;2023-04-19T02:11:06;93719.53;;;11.59;100.00
11077;BME280;5591;42.626;23.380;2023-04-19T02:13:33;93721.63;;;11.18;100.00
11077;BME280;5591;42.626;23.380;2023-04-19T02:16:01;93710.72;;;11.14;100.00
11077;BME280;5591;42.626;23.380;2023-04-19T02:18:30;93626.97;;;10.15;100.00
11077;BME280;5591;42.626;23.380;2023-04-19T02:20:58;93653.22;;;10.54;100.00
11077;BME280;5591;42.626;23.380;2023-04-19T02:23:24;93720.38;;;11.40;100.00
11077;BME280;5591;42.626;23.380;2023-04-19T02:25:51;93717.38;;;11.30;100.00
11077;BME280;5591;42.626;23.380;2023-04-19T02:28:18;93682.22;;;11.11;100.00
11077;BME280;5591;42.626;23.380;2023-04-19T02:30:45;93717.59;;;11.09;100.00
11077;BME280;5591;42.626;23.380;2023-04-19T02:33:14;93717.81;;;10.88;100.00
11077;BME280;5591;42.626;23.380;2023-04-19T02:35:40;93710.75;;;11.08;100.00
11077;BME280;5591;42.626;23.380;2023-04-19T02:38:07;93707.88;;;11.16;100.00
11077;BME280;5591;42.626;23.380;2023-04-19T02:40:34;93722.84;;;10.96;100.00
11077;BME280;5591;42.626;23.380;2023-04-19T02:43:02;93702.22;;;11.12;100.00
11077;BME280;5591;42.626;23.380;2023-04-19T02:45:29;93710.94;;;11.06;100.00
11077;BME280;5591;42.626;23.380;2023-04-19T02:47:56;93707.09;;;10.83;100.00
11077;BME280;5591;42.626;23.380;2023-04-19T02:50:26;93724.88;;;10.81;100.00
11077;BME280;5591;42.626;23.380;2023-04-19T02:52:52;93720.63;;;10.93;100.00
11077;BME280;5591;42.626;23.380;2023-04-19T02:55:19;93718.19;;;10.85;100.00
11077;BME280;5591;42.626;23.380;2023-04-19T02:57:46;93710.94;;;11.00;100.00
11077;BME280;5591;42.626;23.380;2023-04-19T03:00:13;93737.19;;;11.00;100.00
11077;BME280;5591;42.626;23.380;2023-04-19T03:02:42;93717.59;;;11.09;100.00
11077;BME280;5591;42.626;23.380;2023-04-19T03:05:09;93717.00;;;10.74;100.00
11077;BME280;5591;42.626;23.380;2023-04-19T03:07:37;93710.94;;;10.61;100.00
11077;BME280;5591;42.626;23.380;2023-04-19T03:10:05;93720.59;;;10.34;100.00
11077;BME280;5591;42.626;23.380;2023-04-19T03:12:32;93685.28;;;10.50;100.00
11077;BME280;5591;42.626;23.380;2023-04-19T03:14:59;93697.16;;;10.20;100.00
11077;BME280;5591;42.626;23.380;2023-04-19T03:17:26;93707.09;;;10.70;100.00
11077;BME280;5591;42.626;23.380;2023-04-19T03:19:52;93682.41;;;10.06;100.00
11077;BME280;5591;42.626;23.380;2023-04-19T03:22:19;93710.50;;;10.44;100.00
11077;BME280;5591;42.626;23.380;2023-04-19T03:24:47;93710.53;;;10.57;100.00
11077;BME280;5591;42.626;23.380;2023-04-19T03:27:14;93707.91;;;10.57;100.00
11077;BME280;5591;42.626;23.380;2023-04-19T03:29:41;93708.31;;;10.80;100.00
11077;BME280;5591;42.626;23.380;2023-04-19T03:32:08;93696.81;;;10.55;100.00
11077;BME280;5591;42.626;23.380;2023-04-19T03:34:35;93714.31;;;10.29;100.00
11077;BME280;5591;42.626;23.380;2023-04-19T03:37:01;93709.25;;;10.21;100.00
11077;BME280;5591;42.626;23.380;2023-04-19T03:39:28;93698.00;;;10.46;100.00
11077;BME280;5591;42.626;23.380;2023-04-19T03:41:56;93709.25;;;10.21;100.00
11077;BME280;5591;42.626;23.380;2023-04-19T03:44:23;93695.78;;;10.37;100.00
11077;BME280;5591;42.626;23.380;2023-04-19T03:46:50;93703.78;;;10.03;100.00
11077;BME280;5591;42.626;23.380;2023-04-19T03:49:17;93702.63;;;10.38;100.00
11077;BME280;5591;42.626;23.380;2023-04-19T03:51:44;93711.81;;;10.01;100.00
11077;BME280;5591;42.626;23.380;2023-04-19T03:54:11;93702.59;;;10.12;100.00
11077;BME280;5591;42.626;23.380;2023-04-19T03:56:37;93634.41;;;9.39;100.00
11077;BME280;5591;42.626;23.380;2023-04-19T03:59:06;93701.50;;;9.93;100.00
11077;BME280;5591;42.626;23.380;2023-04-19T04:01:32;93698.56;;;10.16;100.00
11077;BME280;5591;42.626;23.380;2023-04-19T04:03:59;93705.22;;;10.12;100.00
11077;BME280;5591;42.626;23.380;2023-04-19T04:06:26;93686.22;;;10.03;100.00
11077;BME280;5591;42.626;23.380;2023-04-19T04:08:53;93655.59;;;10.10;100.00
11077;BME280;5591;42.626;23.380;2023-04-19T04:11:19;93706.94;;;9.92;100.00
11077;BME280;5591;42.626;23.380;2023-04-19T04:13:46;93709.47;;;10.13;100.00
11077;BME280;5591;42.626;23.380;2023-04-19T04:16:16;93697.16;;;10.20;100.00
11077;BME280;5591;42.626;23.380;2023-04-19T04:18:43;93723.94;;;10.09;100.00
11077;BME280;5591;42.626;23.380;2023-04-19T04:21:09;93680.38;;;9.48;100.00
11077;BME280;5591;42.626;23.380;2023-04-19T04:23:36;93718.03;;;9.87;100.00
11077;BME280;5591;42.626;23.380;2023-04-19T04:26:03;93719.03;;;9.86;100.00
11077;BME280;5591;42.626;23.380;2023-04-19T04:28:30;93714.13;;;10.24;100.00
11077;BME280;5591;42.626;23.380;2023-04-19T04:30:58;93727.97;;;10.05;100.00
11077;BME280;5591;42.626;23.380;2023-04-19T04:33:26;93674.66;;;9.78;100.00
11077;BME280;5591;42.626;23.380;2023-04-19T04:35:54;93717.59;;;10.44;100.00
11077;BME280;5591;42.626;23.380;2023-04-19T04:38:22;93734.09;;;10.31;100.00
11077;BME280;5591;42.626;23.380;2023-04-19T04:40:49;93720.63;;;10.54;100.00
11077;BME280;5591;42.626;23.380;2023-04-19T04:43:18;93721.41;;;10.41;100.00
11077;BME280;5591;42.626;23.380;2023-04-19T04:45:45;93731.81;;;10.09;100.00
11077;BME280;5591;42.626;23.380;2023-04-19T04:48:12;93734.88;;;10.19;100.00
11077;BME280;5591;42.626;23.380;2023-04-19T04:50:40;93698.00;;;10.33;100.00
11077;BME280;5591;42.626;23.380;2023-04-19T04:53:07;93713.72;;;10.40;100.00
11077;BME280;5591;42.626;23.380;2023-04-19T04:55:34;93718.63;;;10.75;100.00
11077;BME280;5591;42.626;23.380;2023-04-19T04:58:00;93723.06;;;10.94;100.00
11077;BME280;5591;42.626;23.380;2023-04-19T05:00:29;93725.47;;;11.09;100.00
11077;BME280;5591;42.626;23.380;2023-04-19T05:02:56;93734.78;;;10.66;100.00
11077;BME280;5591;42.626;23.380;2023-04-19T05:05:24;93728.28;;;10.75;100.00
11077;BME280;5591;42.626;23.380;2023-04-19T05:07:52;93726.06;;;10.59;100.00
11077;BME280;5591;42.626;23.380;2023-04-19T05:10:19;93727.50;;;10.55;100.00
11077;BME280;5591;42.626;23.380;2023-04-19T05:12:46;93723.63;;;10.57;100.00
11077;BME280;5591;42.626;23.380;2023-04-19T05:15:12;93712.75;;;10.73;100.00
11077;BME280;5591;42.626;23.380;2023-04-19T05:17:39;93729.25;;;10.22;100.00
11077;BME280;5591;42.626;23.380;2023-04-19T05:20:08;93724.09;;;10.87;100.00
11077;BME280;5591;42.626;23.380;2023-04-19T05:22:35;93728.47;;;11.32;100.00
11077;BME280;5591;42.626;23.380;2023-04-19T05:25:04;93723.06;;;11.07;100.00
11077;BME280;5591;42.626;23.380;2023-04-19T05:27:31;93730.53;;;11.04;100.00
11077;BME280;5591;42.626;23.380;2023-04-19T05:29:57;93728.31;;;11.01;100.00
11077;BME280;5591;42.626;23.380;2023-04-19T05:32:24;93739.97;;;10.53;100.00
11077;BME280;5591;42.626;23.380;2023-04-19T05:34:52;93749.09;;;10.83;100.00
11077;BME280;5591;42.626;23.380;2023-04-19T05:37:18;93745.69;;;10.82;100.00
11077;BME280;5591;42.626;23.380;2023-04-19T05:39:45;93740.81;;;11.05;100.00
11077;BME280;5591;42.626;23.380;2023-04-19T05:42:13;93725.66;;;10.62;100.00
11077;BME280;5591;42.626;23.380;2023-04-19T05:44:40;93743.25;;;10.94;100.00
11077;BME280;5591;42.626;23.380;2023-04-19T05:47:07;93741.63;;;10.80;100.00
11077;BME280;5591;42.626;23.380;2023-04-19T05:49:34;93751.72;;;10.96;100.00
11077;BME280;5591;42.626;23.380;2023-04-19T05:52:01;93742.63;;;11.31;100.00
11077;BME280;5591;42.626;23.380;2023-04-19T05:54:27;93678.06;;;10.65;100.00
11077;BME280;5591;42.626;23.380;2023-04-19T05:56:58;93726.91;;;10.66;100.00
11077;BME280;5591;42.626;23.380;2023-04-19T05:59:27;93757.16;;;11.27;100.00
11077;BME280;5591;42.626;23.380;2023-04-19T06:01:54;93742.81;;;11.29;100.00
11077;BME280;5591;42.626;23.380;2023-04-19T06:04:21;93740.78;;;11.51;100.00
11077;BME280;5591;42.626;23.380;2023-04-19T06:06:48;93739.00;;;11.06;100.00
11077;BME280;5591;42.626;23.380;2023-04-19T06:09:14;93731.13;;;10.67;100.00
11077;BME280;5591;42.626;23.380;2023-04-19T06:11:42;93718.00;;;10.86;100.00
11077;BME280;5591;42.626;23.380;2023-04-19T06:14:09;93746.88;;;10.99;100.00
11077;BME280;5591;42.626;23.380;2023-04-19T06:16:38;93751.06;;;11.65;100.00
11077;BME280;5591;42.626;23.380;2023-04-19T06:19:04;93743.31;;;11.83;100.00
11077;BME280;5591;42.626;23.380;2023-04-19T06:21:32;93734.94;;;12.12;100.00
11077;BME280;5591;42.626;23.380;2023-04-19T06:23:59;93749.88;;;11.61;100.00
11077;BME280;5591;42.626;23.380;2023-04-19T06:26:26;93756.78;;;10.97;100.00
11077;BME280;5591;42.626;23.380;2023-04-19T06:28:53;93736.00;;;11.02;100.00
11077;BME280;5591;42.626;23.380;2023-04-19T06:31:20;93747.03;;;11.37;100.00
11077;BME280;5591;42.626;23.380;2023-04-19T06:33:48;93734.09;;;11.55;100.00
11077;BME280;5591;42.626;23.380;2023-04-19T06:36:14;93754.09;;;11.49;100.00
11077;BME280;5591;42.626;23.380;2023-04-19T06:38:41;93754.69;;;11.77;100.00
11077;BME280;5591;42.626;23.380;2023-04-19T06:41:09;93753.69;;;11.72;100.00
11077;BME280;5591;42.626;23.380;2023-04-19T06:43:36;93742.63;;;12.44;100.00
11077;BME280;5591;42.626;23.380;2023-04-19T06:46:03;93750.81;;;12.67;100.00
11077;BME280;5591;42.626;23.380;2023-04-19T06:48:30;93745.59;;;11.73;100.00
11077;BME280;5591;42.626;23.380;2023-04-19T06:50:59;93758.94;;;11.65;100.00
11077;BME280;5591;42.626;23.380;2023-04-19T06:53:25;93762.22;;;11.61;100.00
11077;BME280;5591;42.626;23.380;2023-04-19T06:55:57;93722.16;;;11.52;100.00
11077;BME280;5591;42.626;23.380;2023-04-19T06:58:25;93755.91;;;12.62;100.00
11077;BME280;5591;42.626;23.380;2023-04-19T07:00:52;93797.88;;;12.88;100.00
11077;BME280;5591;42.626;23.380;2023-04-19T07:03:19;93768.22;;;12.68;100.00
11077;BME280;5591;42.626;23.380;2023-04-19T07:05:46;93770.19;;;12.79;100.00
11077;BME280;5591;42.626;23.380;2023-04-19T07:08:14;93769.06;;;13.00;100.00
11077;BME280;5591;42.626;23.380;2023-04-19T07:10:41;93766.69;;;13.41;100.00
11077;BME280;5591;42.626;23.380;2023-04-19T07:13:10;93774.34;;;13.67;100.00
11077;BME280;5591;42.626;23.380;2023-04-19T07:15:36;93707.06;;;12.66;100.00
11077;BME280;5591;42.626;23.380;2023-04-19T07:18:03;93768.34;;;12.80;100.00
11077;BME280;5591;42.626;23.380;2023-04-19T07:20:30;93767.72;;;13.15;100.00
11077;BME280;5591;42.626;23.380;2023-04-19T07:22:58;93767.84;;;13.69;100.00
11077;BME280;5591;42.626;23.380;2023-04-19T07:25:26;93775.09;;;13.07;100.00
11077;BME280;5591;42.626;23.380;2023-04-19T07:27:53;93781.59;;;13.71;100.00
11077;BME280;5591;42.626;23.380;2023-04-19T07:30:21;93733.91;;;13.37;100.00
11077;BME280;5591;42.626;23.380;2023-04-19T07:32:47;93768.97;;;13.80;100.00
11077;BME280;5591;42.626;23.380;2023-04-19T07:35:15;93769.69;;;13.87;100.00
11077;BME280;5591;42.626;23.380;2023-04-19T07:37:43;93760.38;;;14.02;100.00
11077;BME280;5591;42.626;23.380;2023-04-19T07:40:11;93782.25;;;13.49;100.00
11077;BME280;5591;42.626;23.380;2023-04-19T07:42:39;93772.47;;;14.10;100.00
11077;BME280;5591;42.626;23.380;2023-04-19T07:45:07;93769.91;;;13.85;100.00
11077;BME280;5591;42.626;23.380;2023-04-19T07:47:34;93769.69;;;13.87;100.00
11077;BME280;5591;42.626;23.380;2023-04-19T07:50:00;93777.63;;;13.62;100.00
11077;BME280;5591;42.626;23.380;2023-04-19T07:52:30;93771.44;;;13.75;100.00
11077;BME280;5591;42.626;23.380;2023-04-19T07:54:56;93773.88;;;14.12;100.00
11077;BME280;5591;42.626;23.380;2023-04-19T07:57:23;93765.41;;;13.50;100.00
11077;BME280;5591;42.626;23.380;2023-04-19T07:59:51;93768.75;;;14.35;100.00
11077;BME280;5591;42.626;23.380;2023-04-19T08:02:22;93784.31;;;13.65;100.00
11077;BME280;5591;42.626;23.380;2023-04-19T08:04:49;93766.47;;;14.03;100.00
11077;BME280;5591;42.626;23.380;2023-04-19T08:07:16;93770.06;;;14.26;100.00
11077;BME280;5591;42.626;23.380;2023-04-19T08:09:43;93761.06;;;14.63;100.00
11077;BME280;5591;42.626;23.380;2023-04-19T08:12:09;93764.06;;;14.37;100.00
11077;BME280;5591;42.626;23.380;2023-04-19T08:14:36;93774.59;;;13.83;100.00
11077;BME280;5591;42.626;23.380;2023-04-19T08:17:06;93759.06;;;13.75;100.00
11077;BME280;5591;42.626;23.380;2023-04-19T08:19:32;93772.63;;;13.97;100.00
11077;BME280;5591;42.626;23.380;2023-04-19T08:21:59;93765.91;;;14.66;100.00
11077;BME280;5591;42.626;23.380;2023-04-19T08:24:28;93747.28;;;14.61;100.00
11077;BME280;5591;42.626;23.380;2023-04-19T08:26:55;93766.91;;;14.83;100.00
11077;BME280;5591;42.626;23.380;2023-04-19T08:29:22;93775.28;;;14.33;100.00
11077;BME280;5591;42.626;23.380;2023-04-19T08:31:49;93735.38;;;15.22;100.00
11077;BME280;5591;42.626;23.380;2023-04-19T08:34:17;93771.81;;;14.50;100.00
11077;BME280;5591;42.626;23.380;2023-04-19T08:36:44;93761.84;;;13.98;100.00
11077;BME280;5591;42.626;23.380;2023-04-19T08:39:11;93764.09;;;13.77;100.00
11077;BME280;5591;42.626;23.380;2023-04-19T08:41:39;93747.63;;;13.99;100.00
11077;BME280;5591;42.626;23.380;2023-04-19T08:44:06;93761.47;;;13.95;100.00
11077;BME280;5591;42.626;23.380;2023-04-19T08:46:34;93764.88;;;14.02;100.00
11077;BME280;5591;42.626;23.380;2023-04-19T08:49:03;93757.16;;;14.36;100.00
11077;BME280;5591;42.626;23.380;2023-04-19T08:51:32;93754.44;;;14.07;100.00
11077;BME280;5591;42.626;23.380;2023-04-19T08:54:03;93773.06;;;13.94;100.00
11077;BME280;5591;42.626;23.380;2023-04-19T08:56:30;93754.22;;;14.08;100.00
11077;BME280;5591;42.626;23.380;2023-04-19T08:58:57;93749.13;;;15.01;100.00
11077;BME280;5591;42.626;23.380;2023-04-19T09:01:24;93712.75;;;15.15;100.00
11077;BME280;5591;42.626;23.380;2023-04-19T09:03:50;93759.84;;;14.66;100.00
11077;BME280;5591;42.626;23.380;2023-04-19T09:06:17;93745.84;;;14.77;100.00
11077;BME280;5591;42.626;23.380;2023-04-19T09:08:45;93743.91;;;14.84;100.00
11077;BME280;5591;42.626;23.380;2023-04-19T09:11:12;93745.66;;;14.90;100.00
11077;BME280;5591;42.626;23.380;2023-04-19T09:13:39;93750.31;;;14.76;100.00
11077;BME280;5591;42.626;23.380;2023-04-19T09:16:22;93754.53;;;15.36;100.00
11077;BME280;5591;42.626;23.380;2023-04-19T09:18:54;93740.41;;;15.12;100.00
11077;BME280;5591;42.626;23.380;2023-04-19T09:21:27;93735.44;;;15.34;100.00
11077;BME280;5591;42.626;23.380;2023-04-19T09:23:56;93740.97;;;15.67;98.01
11077;BME280;5591;42.626;23.380;2023-04-19T09:26:23;93741.16;;;15.54;97.54
11077;BME280;5591;42.626;23.380;2023-04-19T09:28:57;93743.84;;;15.77;95.21
11077;BME280;5591;42.626;23.380;2023-04-19T09:31:24;93773.50;;;15.44;99.22
11077;BME280;5591;42.626;23.380;2023-04-19T09:33:51;93741.88;;;15.72;98.18
11077;BME280;5591;42.626;23.380;2023-04-19T09:36:29;93747.16;;;14.86;100.00
11077;BME280;5591;42.626;23.380;2023-04-19T09:38:58;93660.97;;;14.14;100.00
11077;BME280;5591;42.626;23.380;2023-04-19T09:41:25;93749.59;;;14.98;100.00
11077;BME280;5591;42.626;23.380;2023-04-19T09:43:52;93736.34;;;14.87;100.00
11077;BME280;5591;42.626;23.380;2023-04-19T09:46:32;93736.00;;;15.36;98.95
11077;BME280;5591;42.626;23.380;2023-04-19T09:49:19;93734.38;;;14.83;100.00
11077;BME280;5591;42.626;23.380;2023-04-19T09:51:49;93732.47;;;14.60;100.00
11077;BME280;5591;42.626;23.380;2023-04-19T09:54:18;93640.63;;;14.74;100.00
11077;BME280;5591;42.626;23.380;2023-04-19T09:56:46;93729.59;;;15.02;100.00
11077;BME280;5591;42.626;23.380;2023-04-19T09:59:13;93719.91;;;15.49;99.27
11077;BME280;5591;42.626;23.380;2023-04-19T10:01:43;93714.13;;;15.75;96.64
11077;BME280;5591;42.626;23.380;2023-04-19T10:04:11;93721.91;;;15.12;99.95
11077;BME280;5591;42.626;23.380;2023-04-19T10:06:46;93710.97;;;15.38;98.34
11077;BME280;5591;42.626;23.380;2023-04-19T10:09:13;93710.31;;;15.02;100.00
11077;BME280;5591;42.626;23.380;2023-04-19T10:11:47;93682.63;;;15.16;95.78
11077;BME280;5591;42.626;23.380;2023-04-19T10:14:15;93695.16;;;14.57;100.00
11077;BME280;5591;42.626;23.380;2023-04-19T10:16:42;93667.16;;;14.08;100.00
11077;BME280;5591;42.626;23.380;2023-04-19T10:19:10;93708.22;;;14.93;98.18
11077;BME280;5591;42.626;23.380;2023-04-19T10:21:39;93638.72;;;14.10;100.00
11077;BME280;5591;42.626;23.380;2023-04-19T10:24:07;93712.16;;;14.13;100.00
11077;BME280;5591;42.626;23.380;2023-04-19T10:27:06;93687.56;;;15.01;97.97
11077;BME280;5591;42.626;23.380;2023-04-19T10:29:54;93699.19;;;15.23;92.17
11077;BME280;5591;42.626;23.380;2023-04-19T10:32:21;93702.25;;;14.86;93.35
11077;BME280;5591;42.626;23.380;2023-04-19T10:34:50;93685.63;;;15.31;90.95
11077;BME280;5591;42.626;23.380;2023-04-19T10:37:21;93691.69;;;15.20;90.27
11077;BME280;5591;42.626;23.380;2023-04-19T10:39:49;93694.34;;;15.20;87.83
11077;BME280;5591;42.626;23.380;2023-04-19T10:42:17;93675.06;;;16.16;84.35
11077;BME280;5591;42.626;23.380;2023-04-19T10:47:44;93638.84;;;15.54;91.45
11077;BME280;5591;42.626;23.380;2023-04-19T10:50:11;93674.34;;;15.70;90.15
11077;BME280;5591;42.626;23.380;2023-04-19T10:52:41;93606.66;;;15.00;93.80
11077;BME280;5591;42.626;23.380;2023-04-19T10:55:08;93660.59;;;16.35;86.84
11077;BME280;5591;42.626;23.380;2023-04-19T10:58:06;93692.56;;;15.55;88.83
11077;BME280;5591;42.626;23.380;2023-04-19T11:00:33;93669.19;;;15.17;90.60
11077;BME280;5591;42.626;23.380;2023-04-19T11:06:14;93664.25;;;16.46;81.27
11077;BME280;5591;42.626;23.380;2023-04-19T11:08:43;93624.44;;;15.73;82.01
11077;BME280;5591;42.626;23.380;2023-04-19T11:11:12;93644.22;;;15.59;84.12
11077;BME280;5591;42.626;23.380;2023-04-19T11:13:41;93651.63;;;15.46;88.63
11077;BME280;5591;42.626;23.380;2023-04-19T11:16:09;93645.78;;;16.23;83.96
11077;BME280;5591;42.626;23.380;2023-04-19T11:18:35;93572.84;;;15.36;82.33
11077;BME280;5591;42.626;23.380;2023-04-19T11:21:02;93656.97;;;16.53;76.85
11077;BME280;5591;42.626;23.380;2023-04-19T11:23:29;93621.84;;;15.90;78.99
11077;BME280;5591;42.626;23.380;2023-04-19T11:25:56;93650.16;;;16.29;77.39
11077;BME280;5591;42.626;23.380;2023-04-19T11:28:23;93659.63;;;16.53;73.06
11077;BME280;5591;42.626;23.380;2023-04-19T11:30:52;93652.13;;;17.11;70.37
11077;BME280;5591;42.626;23.380;2023-04-19T11:33:20;93654.03;;;18.07;66.01
11077;BME280;5591;42.626;23.380;2023-04-19T11:35:50;93557.53;;;17.75;60.80
11077;BME280;5591;42.626;23.380;2023-04-19T11:38:16;93625.09;;;18.06;61.13
11077;BME280;5591;42.626;23.380;2023-04-19T11:40:43;93658.84;;;17.51;62.04
11077;BME280;5591;42.626;23.380;2023-04-19T11:43:10;93629.72;;;18.15;62.14
11077;BME280;5591;42.626;23.380;2023-04-19T11:45:37;93632.53;;;20.44;55.29
11077;BME280;5591;42.626;23.380;2023-04-19T11:48:06;93642.34;;;18.78;56.63
11077;BME280;5591;42.626;23.380;2023-04-19T11:50:39;93634.72;;;18.33;56.40
11077;BME280;5591;42.626;23.380;2023-04-19T11:53:12;93644.03;;;18.14;56.83
11077;BME280;5591;42.626;23.380;2023-04-19T11:55:44;93642.44;;;18.13;56.44
11077;BME280;5591;42.626;23.380;2023-04-19T11:58:26;93643.66;;;19.33;53.23
11077;BME280;5591;42.626;23.380;2023-04-19T12:00:54;93630.63;;;19.05;53.42
11077;BME280;5591;42.626;23.380;2023-04-19T12:03:23;93645.81;;;17.87;56.16
11077;BME280;5591;42.626;23.380;2023-04-19T12:05:52;93637.34;;;19.13;54.42
11077;BME280;5591;42.626;23.380;2023-04-19T12:08:29;93627.81;;;21.71;48.58
11077;BME280;5591;42.626;23.380;2023-04-19T12:10:56;93619.22;;;20.59;46.36
11077;BME280;5591;42.626;23.380;2023-04-19T12:13:24;93626.41;;;21.98;45.05
11077;BME280;5591;42.626;23.380;2023-04-19T12:15:51;93621.09;;;23.05;44.19
11077;BME280;5591;42.626;23.380;2023-04-19T12:18:18;93628.03;;;20.64;46.10
11077;BME280;5591;42.626;23.380;2023-04-19T12:20:48;93627.50;;;19.96;46.96
11077;BME280;5591;42.626;23.380;2023-04-19T12:23:17;93624.16;;;19.69;46.17
11077;BME280;5591;42.626;23.380;2023-04-19T12:25:46;93632.25;;;19.43;47.21
11077;BME280;5591;42.626;23.380;2023-04-19T12:28:14;93628.94;;;21.10;45.22
11077;BME280;5591;42.626;23.380;2023-04-19T12:30:41;93623.06;;;21.13;44.62
11077;BME280;5591;42.626;23.380;2023-04-19T12:33:08;93548.41;;;19.40;46.29
11077;BME280;5591;42.626;23.380;2023-04-19T12:35:36;93635.13;;;19.31;47.96
11077;BME280;5591;42.626;23.380;2023-04-19T12:38:04;93628.06;;;21.89;48.17
11077;BME280;5591;42.626;23.380;2023-04-19T12:40:32;93609.63;;;25.02;44.95
11077;BME280;5591;42.626;23.380;2023-04-19T12:42:59;93604.84;;;26.89;41.50
11077;BME280;5591;42.626;23.380;2023-04-19T12:45:26;93611.09;;;25.45;42.17
11077;BME280;5591;42.626;23.380;2023-04-19T12:47:52;93599.59;;;28.16;39.10
11077;BME280;5591;42.626;23.380;2023-04-19T12:50:19;93608.09;;;29.89;35.99
11077;BME280;5591;42.626;23.380;2023-04-19T12:52:46;93608.63;;;31.04;35.15
11077;BME280;5591;42.626;23.380;2023-04-19T12:55:14;93604.09;;;31.16;34.29
11077;BME280;5591;42.626;23.380;2023-04-19T12:57:41;93614.03;;;28.20;37.14
11077;BME280;5591;42.626;23.380;2023-04-19T13:00:09;93617.06;;;29.81;35.02
11077;BME280;5591;42.626;23.380;2023-04-19T13:02:37;93610.34;;;31.08;33.53